Time;durP1;ratioP1;P1;durP2;ratioP2;P2;SDS_P1;SDS_P2;PMS_P1;PMS_P2;Temp;Humidity;BMP_temperature;BMP_pressure;BME280_temperature;BME280_humidity;BME280_pressure;Samples;Min_cycle;Max_cycle;Signal;HPM_P1;HPM_P2
2024/01/03 00:00:06;;;;;;;13.25;2.80;;;;;;;10.40;100.00;98711.78;4994422;28;20041;-76
2024/01/03 00:02:31;;;;;;;8.88;1.90;;;;;;;10.28;100.00;98685.41;4994656;28;20025;-76
2024/01/03 00:04:58;;;;;;;11.18;2.50;;;;;;;10.31;100.00;98705.75;4994368;28;20105;-76
2024/01/03 00:07:23;;;;;;;8.70;2.20;;;;;;;10.39;100.00;98720.50;4994442;28;20463;-76
2024/01/03 00:09:54;;;;;;;10.90;2.60;;;;;;;10.40;99.51;98723.88;4994509;28;20097;-76
2024/01/03 00:12:24;;;;;;;13.38;2.65;;;;;;;10.40;98.69;98721.31;4994379;28;20390;-76
2024/01/03 00:14:49;;;;;;;10.63;2.08;;;;;;;10.42;98.51;98729.69;4994529;28;20073;-75
2024/01/03 00:17:15;;;;;;;7.97;2.05;;;;;;;10.26;98.31;98720.06;4994343;28;20042;-75
2024/01/03 00:19:42;;;;;;;9.68;1.95;;;;;;;10.34;99.25;98738.19;4994297;28;20022;-75
2024/01/03 00:22:10;;;;;;;8.88;1.65;;;;;;;10.37;97.25;98729.34;4994332;28;20061;-77
2024/01/03 00:24:45;;;;;;;10.07;2.05;;;;;;;10.23;98.11;98728.91;4994035;28;20501;-76
2024/01/03 00:27:10;;;;;;;10.25;1.88;;;;;;;10.42;96.49;98745.19;4993882;28;20065;-77
2024/01/03 00:29:52;;;;;;;11.95;1.80;;;;;;;10.44;95.57;98758.78;4994032;28;20478;-75
2024/01/03 00:32:20;;;;;;;10.18;2.35;;;;;;;10.41;95.38;98757.28;4993683;28;20486;-75
2024/01/03 00:34:45;;;;;;;13.27;2.35;;;;;;;10.42;96.70;98756.34;4994094;28;20030;-75
2024/01/03 00:37:21;;;;;;;15.88;2.30;;;;;;;10.38;96.94;98757.56;4984669;28;20463;-75
2024/01/03 00:39:46;;;;;;;8.95;2.00;;;;;;;10.30;97.17;98745.41;4993910;28;20035;-75
2024/01/03 00:42:12;;;;;;;12.52;2.90;;;;;;;10.31;98.57;98762.50;5000755;28;20482;-75
2024/01/03 00:44:37;;;;;;;12.40;2.50;;;;;;;10.30;99.54;98773.78;4993277;28;20022;-75
2024/01/03 00:47:03;;;;;;;12.50;2.60;;;;;;;10.22;100.00;98754.81;4993711;28;20045;-75
2024/01/03 00:49:29;;;;;;;15.55;3.22;;;;;;;10.28;100.00;98774.88;4993725;28;20031;-75
2024/01/03 00:51:55;;;;;;;11.05;2.67;;;;;;;9.99;100.00;98741.50;4993691;28;20018;-75
2024/01/03 00:54:22;;;;;;;16.17;3.75;;;;;;;10.23;100.00;98765.00;4993583;28;20026;-75
2024/01/03 00:56:49;;;;;;;18.27;3.30;;;;;;;10.17;100.00;98783.59;4993183;28;20026;-75
2024/01/03 00:59:16;;;;;;;17.42;3.67;;;;;;;10.19;100.00;98796.34;4993518;28;20462;-75
2024/01/03 01:01:41;;;;;;;15.32;3.50;;;;;;;10.17;100.00;98791.34;4993424;28;20545;-75
2024/01/03 01:04:07;;;;;;;17.27;3.88;;;;;;;10.15;100.00;98801.00;4993642;28;20023;-74
2024/01/03 01:06:33;;;;;;;17.92;4.78;;;;;;;9.98;100.00;98751.00;4993704;28;20014;-75
2024/01/03 01:09:01;;;;;;;17.13;3.20;;;;;;;10.14;100.00;98772.78;4993195;28;20393;-75
2024/01/03 01:11:26;;;;;;;15.30;3.75;;;;;;;10.16;100.00;98804.38;5001903;28;20494;-75
2024/01/03 01:13:51;;;;;;;18.13;3.45;;;;;;;10.10;100.00;98816.06;4993267;28;20029;-74
2024/01/03 01:16:17;;;;;;;17.92;3.58;;;;;;;10.13;100.00;98813.22;4993132;28;20497;-75
2024/01/03 01:18:42;;;;;;;15.60;3.53;;;;;;;10.16;100.00;98823.25;4993334;28;20540;-75
2024/01/03 01:21:07;;;;;;;14.90;3.63;;;;;;;10.01;100.00;98806.59;4993281;28;20044;-76
2024/01/03 01:23:34;;;;;;;16.52;3.85;;;;;;;10.09;100.00;98821.38;4993190;28;20061;-76
2024/01/03 01:25:59;;;;;;;17.73;3.53;;;;;;;10.07;100.00;98819.75;4993276;28;20030;-75
2024/01/03 01:28:24;;;;;;;15.52;3.65;;;;;;;9.89;100.00;98789.72;4993095;28;20036;-75
2024/01/03 01:30:50;;;;;;;16.48;3.70;;;;;;;9.98;100.00;98825.75;4993117;28;20030;-76
2024/01/03 01:33:15;;;;;;;15.60;3.60;;;;;;;10.02;100.00;98834.81;4992965;28;20050;-76
2024/01/03 01:35:40;;;;;;;19.40;3.63;;;;;;;10.02;100.00;98834.81;4993276;28;20026;-75
2024/01/03 01:38:06;;;;;;;17.27;4.32;;;;;;;10.04;100.00;98853.56;4992977;28;20030;-76
2024/01/03 01:40:32;;;;;;;21.35;4.47;;;;;;;9.65;100.00;98785.88;4993103;28;20494;-76
2024/01/03 01:42:57;;;;;;;18.80;4.00;;;;;;;9.92;100.00;98821.16;4993006;28;20030;-77
2024/01/03 01:45:22;;;;;;;21.90;4.10;;;;;;;10.04;100.00;98851.00;4993189;28;20027;-76
2024/01/03 01:47:48;;;;;;;16.23;3.88;;;;;;;9.95;100.00;98840.72;4992785;28;20102;-75
2024/01/03 01:50:14;;;;;;;19.02;4.20;;;;;;;9.87;100.00;98818.22;4993049;28;20026;-75
2024/01/03 01:52:39;;;;;;;15.63;4.20;;;;;;;10.01;100.00;98866.72;4992852;28;20117;-75
2024/01/03 01:55:06;;;;;;;21.52;4.00;;;;;;;10.04;100.00;98861.31;4995202;28;20033;-76
2024/01/03 01:57:32;;;;;;;21.05;4.75;;;;;;;10.09;100.00;98854.91;4996598;28;20053;-75
2024/01/03 01:59:58;;;;;;;17.25;3.38;;;;;;;10.11;100.00;98863.31;4996812;28;20022;-76
2024/01/03 02:02:24;;;;;;;17.00;4.13;;;;;;;10.13;100.00;98861.38;4996824;28;20471;-76
2024/01/03 02:04:49;;;;;;;18.60;4.13;;;;;;;10.09;100.00;98855.72;4996511;28;20088;-76
2024/01/03 02:07:15;;;;;;;14.75;4.13;;;;;;;10.20;100.00;98883.91;4996861;28;20045;-76
2024/01/03 02:09:42;;;;;;;19.38;4.10;;;;;;;10.10;100.00;98859.09;4996599;28;20033;-76
2024/01/03 02:12:08;;;;;;;21.63;4.15;;;;;;;10.17;100.00;98885.97;4996542;28;20042;-76
2024/01/03 02:14:33;;;;;;;15.38;3.70;;;;;;;10.04;100.00;98869.03;4996441;28;20029;-75
2024/01/03 02:16:59;;;;;;;17.45;3.97;;;;;;;10.17;100.00;98901.44;4996349;28;20026;-75
2024/01/03 02:19:24;;;;;;;17.85;3.72;;;;;;;10.16;100.00;98876.59;4996338;28;20049;-75
2024/01/03 02:21:49;;;;;;;19.90;4.20;;;;;;;10.18;100.00;98872.91;4996344;28;20019;-75
2024/01/03 02:24:14;;;;;;;19.05;3.70;;;;;;;10.15;100.00;98895.63;4996476;28;20096;-75
2024/01/03 02:26:40;;;;;;;24.25;4.35;;;;;;;10.18;100.00;98888.41;4996340;28;20026;-75
2024/01/03 02:29:05;;;;;;;18.33;4.13;;;;;;;10.16;100.00;98902.41;4996114;28;20031;-75
2024/01/03 02:31:31;;;;;;;18.25;3.20;;;;;;;10.09;100.00;98896.16;4996153;28;20056;-77
2024/01/03 02:33:57;;;;;;;17.15;3.95;;;;;;;10.13;100.00;98893.19;4995970;28;20042;-75
2024/01/03 02:36:23;;;;;;;18.73;3.60;;;;;;;10.17;100.00;98893.69;4996041;28;20046;-75
2024/01/03 02:38:51;;;;;;;18.88;3.80;;;;;;;10.13;100.00;98890.59;4996048;28;20109;-75
2024/01/03 02:41:17;;;;;;;19.25;3.78;;;;;;;10.14;100.00;98897.38;4996252;28;20054;-76
2024/01/03 02:43:42;;;;;;;19.83;3.63;;;;;;;10.08;100.00;98890.19;4996056;28;20062;-77
2024/01/03 02:46:08;;;;;;;20.02;3.95;;;;;;;10.05;100.00;98886.13;4995991;28;20037;-75
2024/01/03 02:48:33;;;;;;;12.90;3.22;;;;;;;10.07;100.00;98891.97;4995810;28;20022;-77
2024/01/03 02:50:58;;;;;;;19.35;4.25;;;;;;;10.12;100.00;98899.28;4995827;28;20070;-76
2024/01/03 02:53:24;;;;;;;13.43;3.28;;;;;;;10.04;100.00;98886.28;5004808;28;20514;-77
2024/01/03 02:55:49;;;;;;;14.10;3.65;;;;;;;10.11;100.00;98904.56;4994393;28;20038;-75
2024/01/03 02:58:14;;;;;;;17.60;4.53;;;;;;;10.04;100.00;98888.88;4995638;28;20026;-77
2024/01/03 03:00:40;;;;;;;18.73;4.72;;;;;;;10.05;100.00;98901.63;4995489;28;20022;-75
2024/01/03 03:03:06;;;;;;;19.02;4.55;;;;;;;10.02;100.00;98901.88;5010157;28;20046;-76
2024/01/03 03:05:31;;;;;;;20.02;4.20;;;;;;;9.99;100.00;98899.59;4995065;28;20363;-76
2024/01/03 03:07:57;;;;;;;15.35;4.10;;;;;;;9.93;100.00;98897.59;4995211;28;20031;-74
2024/01/03 03:10:22;;;;;;;17.58;4.15;;;;;;;9.96;100.00;98902.44;4995492;28;20101;-75
2024/01/03 03:12:47;;;;;;;17.58;3.65;;;;;;;9.96;100.00;98912.75;4995607;28;20026;-76
2024/01/03 03:15:13;;;;;;;19.10;4.13;;;;;;;9.94;100.00;98908.72;4995009;28;20022;-75
2024/01/03 03:17:38;;;;;;;19.63;4.63;;;;;;;9.94;100.00;98906.13;4995288;28;20105;-75
2024/01/03 03:20:04;;;;;;;16.88;4.38;;;;;;;9.81;100.00;98887.56;4995322;28;20046;-77
2024/01/03 03:22:29;;;;;;;19.52;4.30;;;;;;;9.88;100.00;98914.41;4995125;28;20065;-75
2024/01/03 03:24:54;;;;;;;20.60;4.95;;;;;;;9.80;100.00;98904.78;4995236;28;20065;-75
2024/01/03 03:27:20;;;;;;;18.60;4.63;;;;;;;9.81;100.00;98916.72;4995239;28;20073;-75
2024/01/03 03:29:45;;;;;;;25.52;5.65;;;;;;;9.80;100.00;98909.13;4994823;28;20052;-77
2024/01/03 03:32:11;;;;;;;18.52;4.30;;;;;;;9.71;100.00;98903.03;4995122;28;20046;-77
2024/01/03 03:34:36;;;;;;;18.42;4.38;;;;;;;9.73;100.00;98903.69;4995119;28;20033;-77
2024/01/03 03:37:01;;;;;;;16.13;4.90;;;;;;;9.80;100.00;98912.50;4994838;28;20026;-76
2024/01/03 03:39:27;;;;;;;23.10;4.07;;;;;;;9.84;100.00;98908.72;4995118;28;20030;-77
2024/01/03 03:41:52;;;;;;;21.55;4.35;;;;;;;9.80;100.00;98915.09;4994927;28;20050;-75
2024/01/03 03:44:17;;;;;;;22.33;4.93;;;;;;;9.76;100.00;98913.75;4994838;28;20490;-75
2024/01/03 03:46:43;;;;;;;20.73;4.15;;;;;;;9.72;100.00;98917.53;4994751;28;20034;-75
2024/01/03 03:49:08;;;;;;;21.85;4.75;;;;;;;9.68;100.00;98909.28;4994781;28;20113;-75
2024/01/03 03:51:33;;;;;;;19.83;4.32;;;;;;;9.54;100.00;98914.03;4994713;28;20062;-77
2024/01/03 03:53:59;;;;;;;22.27;5.10;;;;;;;9.24;100.00;98897.75;4994655;28;20077;-76
2024/01/03 03:56:26;;;;;;;21.38;5.40;;;;;;;9.26;100.00;98926.81;4994754;28;20080;-75
2024/01/03 03:58:51;;;;;;;20.77;4.53;;;;;;;9.12;100.00;98929.75;4994275;28;20030;-74
2024/01/03 04:01:18;;;;;;;21.92;4.90;;;;;;;8.97;100.00;98931.91;4994904;28;20037;-75
2024/01/03 04:03:43;;;;;;;24.83;5.22;;;;;;;8.88;100.00;98928.38;4994563;28;20414;-76
2024/01/03 04:06:09;;;;;;;23.45;5.15;;;;;;;8.61;100.00;98917.84;4994583;28;20036;-76
2024/01/03 04:08:35;;;;;;;23.20;4.45;;;;;;;8.69;100.00;98915.44;4994389;28;20030;-75
2024/01/03 04:11:03;;;;;;;24.70;5.43;;;;;;;8.64;100.00;98915.00;4994494;28;20098;-74
2024/01/03 04:13:30;;;;;;;21.38;5.35;;;;;;;8.49;100.00;98936.91;4994496;28;20080;-74
2024/01/03 04:15:55;;;;;;;23.48;6.05;;;;;;;8.54;100.00;98951.00;4994118;28;20076;-74
2024/01/03 04:18:20;;;;;;;26.27;5.57;;;;;;;8.51;100.00;98933.25;4993344;28;20474;-75
2024/01/03 04:20:46;;;;;;;23.65;5.35;;;;;;;8.51;100.00;98938.41;4994295;28;20022;-75
2024/01/03 04:23:11;;;;;;;27.73;5.03;;;;;;;8.50;100.00;98941.09;4994112;28;20177;-75
2024/01/03 04:25:37;;;;;;;27.42;4.82;;;;;;;8.39;100.00;98929.16;4994001;28;20117;-75
2024/01/03 04:28:02;;;;;;;21.63;4.47;;;;;;;8.21;100.00;98894.66;4994253;28;20140;-77
2024/01/03 04:30:27;;;;;;;16.55;3.92;;;;;;;8.48;100.00;98930.13;4993955;28;20037;-75
2024/01/03 04:32:53;;;;;;;21.10;5.07;;;;;;;8.57;100.00;98934.50;4993757;28;20050;-76
2024/01/03 04:35:18;;;;;;;16.52;4.72;;;;;;;8.51;100.00;98922.97;4994047;28;20054;-75
2024/01/03 04:37:43;;;;;;;18.83;5.00;;;;;;;8.69;100.00;98938.59;4994043;28;20073;-75
2024/01/03 04:40:10;;;;;;;16.00;4.32;;;;;;;8.74;100.00;98936.44;4993712;28;20054;-75
2024/01/03 04:42:36;;;;;;;17.77;4.65;;;;;;;8.79;100.00;98936.06;4993889;28;20040;-75
2024/01/03 04:45:02;;;;;;;15.70;3.88;;;;;;;8.72;100.00;98925.47;4993749;28;20018;-75
2024/01/03 04:47:27;;;;;;;15.95;3.65;;;;;;;8.82;100.00;98943.50;4993791;28;20080;-75
2024/01/03 04:49:52;;;;;;;16.67;3.70;;;;;;;8.76;100.00;98926.84;4993840;28;20037;-75
2024/01/03 04:52:18;;;;;;;21.25;4.10;;;;;;;8.74;100.00;98923.56;4993842;28;20038;-77
2024/01/03 04:54:43;;;;;;;13.25;3.25;;;;;;;8.87;100.00;98946.53;4993470;28;20026;-76
2024/01/03 04:57:08;;;;;;;13.55;3.50;;;;;;;8.87;100.00;98952.47;4993595;28;20474;-75
2024/01/03 04:59:33;;;;;;;15.27;3.03;;;;;;;8.87;100.00;98949.09;4993598;28;20019;-75
2024/01/03 05:01:59;;;;;;;14.02;2.83;;;;;;;8.89;100.00;98945.44;4993711;28;20048;-75
2024/01/03 05:04:24;;;;;;;12.55;4.13;;;;;;;8.89;100.00;98937.72;4993544;28;20081;-75
2024/01/03 05:06:51;;;;;;;16.13;2.80;;;;;;;8.79;100.00;98938.63;4992240;28;20025;-75
2024/01/03 05:09:17;;;;;;;15.63;3.00;;;;;;;8.91;100.00;98951.25;4993508;28;20057;-75
2024/01/03 05:14:12;;;;;;;10.32;2.60;;;;;;;8.88;100.00;98959.25;5011872;28;20410;-75
2024/01/03 05:16:37;;;;;;;11.52;2.78;;;;;;;8.88;100.00;98955.88;5012820;28;20026;-75
2024/01/03 05:19:03;;;;;;;8.55;2.38;;;;;;;8.79;100.00;98941.22;5013026;28;20022;-76
2024/01/03 05:21:28;;;;;;;10.65;2.67;;;;;;;8.78;100.00;98939.59;5012876;28;20018;-78
2024/01/03 05:23:53;;;;;;;14.32;2.38;;;;;;;8.76;100.00;98965.44;5013088;28;20030;-76
2024/01/03 05:26:19;;;;;;;8.70;2.20;;;;;;;8.69;100.00;98951.47;5012891;28;20066;-77
2024/01/03 05:28:44;;;;;;;11.45;2.40;;;;;;;8.68;100.00;98960.13;5012690;28;20026;-77
2024/01/03 05:31:10;;;;;;;11.88;2.20;;;;;;;8.69;100.00;98959.19;5012861;28;20028;-77
2024/01/03 05:33:35;;;;;;;10.45;2.17;;;;;;;8.60;100.00;98952.25;5012894;28;20022;-75
2024/01/03 05:36:03;;;;;;;10.43;2.17;;;;;;;8.55;100.00;98942.38;5012515;28;20030;-75
2024/01/03 05:38:28;;;;;;;8.75;2.35;;;;;;;8.70;100.00;98953.09;5012757;28;20037;-76
2024/01/03 05:40:54;;;;;;;10.35;1.73;;;;;;;8.56;100.00;98931.13;5012782;28;20030;-76
2024/01/03 05:43:21;;;;;;;9.32;2.05;;;;;;;8.71;100.00;98966.78;5012662;28;20092;-76
2024/01/03 05:45:46;;;;;;;7.20;1.67;;;;;;;8.69;100.00;98959.19;5011634;28;20049;-77
2024/01/03 05:48:11;;;;;;;9.02;2.15;;;;;;;8.67;100.00;98957.69;5012710;28;20072;-76
2024/01/03 05:50:37;;;;;;;10.02;2.17;;;;;;;8.64;100.00;98956.19;5012410;28;20041;-77
2024/01/03 05:53:02;;;;;;;10.77;1.70;;;;;;;8.65;100.00;98964.72;5012688;28;20026;-76
2024/01/03 05:55:28;;;;;;;7.90;2.40;;;;;;;8.60;100.00;98958.22;5012760;28;20049;-76
2024/01/03 05:57:53;;;;;;;8.20;1.45;;;;;;;8.48;100.00;98946.38;4994948;28;20030;-77
2024/01/03 06:00:19;;;;;;;6.38;1.40;;;;;;;8.50;100.00;98954.78;5012563;28;20022;-77
2024/01/03 06:02:44;;;;;;;6.95;1.63;;;;;;;8.50;100.00;98962.50;5012465;28;20057;-77
2024/01/03 06:05:12;;;;;;;4.88;1.20;;;;;;;8.49;100.00;98955.72;5012674;28;20080;-79
2024/01/03 06:07:37;;;;;;;8.70;1.50;;;;;;;8.47;100.00;98960.19;5012576;28;20049;-74
2024/01/03 06:10:03;;;;;;;5.90;1.35;;;;;;;8.43;100.00;98955.41;5012507;28;20494;-76
2024/01/03 06:12:29;;;;;;;6.60;1.73;;;;;;;8.41;100.00;98963.28;5012127;28;20073;-74
2024/01/03 06:14:55;;;;;;;8.60;1.65;;;;;;;8.45;100.00;98967.19;5012274;28;20053;-75
2024/01/03 06:17:20;;;;;;;5.63;1.30;;;;;;;8.29;100.00;98966.84;5012181;28;20462;-75
2024/01/03 06:19:45;;;;;;;8.95;2.03;;;;;;;8.33;100.00;98963.06;5011341;28;20030;-75
2024/01/03 06:22:11;;;;;;;7.03;1.77;;;;;;;8.27;100.00;98981.59;5012306;28;20458;-75
2024/01/03 06:24:36;;;;;;;5.03;1.55;;;;;;;8.17;100.00;98966.09;5012175;28;20022;-76
2024/01/03 06:27:02;;;;;;;7.82;1.90;;;;;;;8.09;100.00;98965.91;5012278;28;20026;-75
2024/01/03 06:32:02;;;;;;;10.43;2.20;;;;;;;7.98;100.00;98971.13;5875386;23;20377;-75
2024/01/03 06:34:28;;;;;;;9.82;2.03;;;;;;;8.02;100.00;98978.44;4992770;28;20030;-74
2024/01/03 06:36:53;;;;;;;11.82;2.30;;;;;;;7.98;100.00;98981.41;4992586;28;20606;-74
2024/01/03 06:39:18;;;;;;;10.77;2.33;;;;;;;7.86;100.00;98975.50;4992815;28;20134;-74
2024/01/03 06:41:44;;;;;;;7.53;2.00;;;;;;;7.94;100.00;98977.44;4994065;28;20034;-74
2024/01/03 06:44:09;;;;;;;13.65;1.90;;;;;;;7.88;100.00;98978.78;4995968;28;20027;-73
2024/01/03 06:46:34;;;;;;;8.45;2.28;;;;;;;7.78;100.00;98969.38;4995783;28;20022;-74
2024/01/03 06:48:59;;;;;;;5.72;1.20;;;;;;;7.81;100.00;98990.47;4995919;28;20078;-74
2024/01/03 06:51:25;;;;;;;7.05;1.83;;;;;;;7.67;100.00;98978.75;4995848;28;20026;-74
2024/01/03 06:53:50;;;;;;;7.70;1.45;;;;;;;7.73;100.00;98991.09;4996044;28;20085;-73
2024/01/03 06:56:24;;;;;;;6.72;1.40;;;;;;;7.70;100.00;98985.41;5010568;28;20113;-74
2024/01/03 06:58:50;;;;;;;9.85;1.88;;;;;;;7.54;100.00;98982.41;4995830;28;20538;-73
2024/01/03 07:01:16;;;;;;;8.30;1.95;;;;;;;7.53;100.00;98985.91;4995443;28;20101;-74
2024/01/03 07:03:41;;;;;;;5.78;1.42;;;;;;;7.45;100.00;98968.53;4995601;28;20034;-76
2024/01/03 07:06:07;;;;;;;3.05;1.05;;;;;;;7.42;100.00;98985.03;4995628;28;20038;-75
2024/01/03 07:08:32;;;;;;;5.95;1.40;;;;;;;7.37;100.00;98981.16;4995715;28;20065;-75
2024/01/03 07:10:57;;;;;;;6.20;1.15;;;;;;;7.34;100.00;98978.84;4995644;28;20445;-76
2024/01/03 07:13:22;;;;;;;2.72;1.10;;;;;;;7.28;100.00;98994.78;4995518;28;20023;-76
2024/01/03 07:15:48;;;;;;;3.30;0.70;;;;;;;7.28;100.00;99005.03;4995194;28;20389;-77
2024/01/03 07:18:13;;;;;;;4.38;1.15;;;;;;;7.26;100.00;99004.31;4995442;28;20406;-76
2024/01/03 07:20:38;;;;;;;4.22;0.80;;;;;;;7.24;100.00;99017.28;4995624;28;20030;-77
2024/01/03 07:23:04;;;;;;;1.88;1.00;;;;;;;7.12;100.00;98995.13;4995442;28;20118;-77
2024/01/03 07:25:29;;;;;;;3.25;0.80;;;;;;;7.18;100.00;99017.78;4995199;28;20062;-76
2024/01/03 07:27:54;;;;;;;4.15;0.70;;;;;;;7.17;100.00;99008.41;4995085;28;20445;-76
2024/01/03 07:30:21;;;;;;;3.55;0.70;;;;;;;7.20;100.00;99013.31;4995155;28;20041;-77
2024/01/03 07:32:47;;;;;;;4.50;0.77;;;;;;;7.23;100.00;99022.53;4995146;28;20134;-76
2024/01/03 07:35:12;;;;;;;3.17;0.85;;;;;;;7.28;100.00;99020.44;4994187;28;20110;-73
2024/01/03 07:37:38;;;;;;;4.78;0.98;;;;;;;7.29;100.00;99022.06;4995277;28;20026;-76
2024/01/03 07:40:04;;;;;;;2.78;0.88;;;;;;;7.31;100.00;99026.13;4995461;28;20031;-76
2024/01/03 07:42:29;;;;;;;3.20;0.85;;;;;;;7.32;100.00;99032.09;4994732;28;20022;-74
2024/01/03 07:44:54;;;;;;;3.03;0.75;;;;;;;7.22;100.00;99021.72;4994844;28;20094;-76
2024/01/03 07:47:20;;;;;;;3.78;1.45;;;;;;;7.15;100.00;99007.72;4994766;28;20041;-79
2024/01/03 07:49:46;;;;;;;6.57;1.42;;;;;;;7.38;100.00;99036.75;4994555;28;20418;-79
2024/01/03 07:52:11;;;;;;;2.95;1.10;;;;;;;7.38;100.00;99045.28;4994468;28;20025;-75
2024/01/03 07:54:37;;;;;;;4.10;1.50;;;;;;;7.40;100.00;99042.59;4994786;28;20026;-77
2024/01/03 07:57:04;;;;;;;3.60;1.67;;;;;;;7.42;100.00;99045.84;4994528;28;20053;-77
2024/01/03 07:59:33;;;;;;;3.75;1.65;;;;;;;7.38;100.00;99039.31;4994722;28;20038;-77
2024/01/03 08:01:59;;;;;;;3.85;2.13;;;;;;;7.44;100.00;99049.91;4994467;28;20026;-77
2024/01/03 08:04:25;;;;;;;6.25;2.35;;;;;;;7.45;100.00;99045.59;4994782;28;20022;-79
2024/01/03 08:06:51;;;;;;;6.28;2.63;;;;;;;7.48;100.00;99053.06;4994950;28;20371;-82
2024/01/03 08:09:16;;;;;;;8.55;3.10;;;;;;;7.40;100.00;99034.88;4994657;28;20030;-79
2024/01/03 08:11:41;;;;;;;5.97;3.20;;;;;;;7.49;100.00;99052.13;4994297;28;20467;-80
2024/01/03 08:14:07;;;;;;;8.75;3.58;;;;;;;7.52;100.00;99058.78;4994481;28;20034;-77
2024/01/03 08:16:32;;;;;;;5.68;3.30;;;;;;;7.50;100.00;99046.06;4994207;28;20026;-76
2024/01/03 08:18:57;;;;;;;7.32;3.20;;;;;;;7.54;100.00;99039.72;4992979;28;20046;-80
2024/01/03 08:21:23;;;;;;;7.03;3.33;;;;;;;7.64;100.00;99060.38;4992538;28;20513;-76
2024/01/03 08:23:48;;;;;;;9.73;3.20;;;;;;;7.68;100.00;99061.78;4994132;28;20077;-77
2024/01/03 08:26:13;;;;;;;8.73;3.03;;;;;;;7.71;100.00;99058.97;5008601;28;20038;-76
2024/01/03 08:28:41;;;;;;;9.98;2.88;;;;;;;7.69;100.00;99053.94;4994057;28;20027;-76
2024/01/03 08:31:15;;;;;;;8.80;2.92;;;;;;;7.74;100.00;99056.94;4994030;28;20105;-75
2024/01/03 08:33:40;;;;;;;11.10;3.00;;;;;;;7.73;100.00;99052.75;4993706;28;20046;-78
2024/01/03 08:36:16;;;;;;;9.85;3.08;;;;;;;7.76;100.00;99060.22;4994196;28;20034;-79
2024/01/03 08:38:42;;;;;;;9.27;2.10;;;;;;;7.80;100.00;99062.56;5265454;23;20545;-80
2024/01/03 08:41:22;;;;;;;9.82;2.47;;;;;;;7.75;100.00;99050.06;5013529;28;20069;-78
2024/01/03 08:43:47;;;;;;;10.25;1.92;;;;;;;7.80;100.00;99058.22;5280304;23;21140;-75
2024/01/03 08:46:13;;;;;;;9.13;2.47;;;;;;;7.85;100.00;99071.50;4992710;28;20045;-73
2024/01/03 08:48:42;;;;;;;13.43;2.95;;;;;;;7.79;100.00;99048.91;4994565;28;20023;-79
2024/01/03 08:51:16;;;;;;;8.07;2.20;;;;;;;7.95;100.00;99072.41;4993666;28;20027;-75
2024/01/03 08:53:41;;;;;;;14.27;3.47;;;;;;;8.02;100.00;99075.31;4993456;28;20618;-76
2024/01/03 08:56:14;;;;;;;13.65;3.40;;;;;;;8.07;100.00;99073.22;4993631;28;20103;-75
2024/01/03 08:58:41;;;;;;;14.30;2.88;;;;;;;8.11;100.00;99073.75;4993673;28;20489;-75
2024/01/03 09:01:06;;;;;;;18.63;3.03;;;;;;;8.16;100.00;99080.19;4993473;28;20034;-74
2024/01/03 09:03:31;;;;;;;14.88;3.00;;;;;;;8.20;100.00;99081.53;4993289;28;20085;-76
2024/01/03 09:05:57;;;;;;;12.57;3.25;;;;;;;8.26;100.00;99080.25;4993280;28;20030;-76
2024/01/03 09:08:22;;;;;;;13.68;3.35;;;;;;;8.30;100.00;99091.91;4993659;28;20030;-74
2024/01/03 09:10:48;;;;;;;14.38;2.97;;;;;;;8.38;100.00;99088.75;4993671;28;20018;-77
2024/01/03 09:13:14;;;;;;;18.52;3.88;;;;;;;8.32;100.00;99070.25;4993363;28;20026;-74
2024/01/03 09:15:39;;;;;;;18.92;3.42;;;;;;;8.46;100.00;99091.50;4993475;28;20378;-77
2024/01/03 09:18:06;;;;;;;16.35;3.42;;;;;;;8.45;100.00;99082.94;4993160;28;20038;-77
2024/01/03 09:20:31;;;;;;;20.33;3.33;;;;;;;8.42;100.00;99082.41;4993167;28;20030;-77
2024/01/03 09:22:58;;;;;;;13.02;3.35;;;;;;;8.42;100.00;99070.34;4993441;28;20030;-79
2024/01/03 09:25:23;;;;;;;19.38;3.40;;;;;;;8.47;100.00;99091.38;4993349;28;20026;-76
2024/01/03 09:27:49;;;;;;;17.67;3.40;;;;;;;8.56;100.00;99092.41;4993286;28;20085;-79
2024/01/03 09:30:14;;;;;;;17.17;4.22;;;;;;;8.53;100.00;99098.59;4991483;28;20089;-77
2024/01/03 09:32:41;;;;;;;20.45;4.53;;;;;;;8.65;100.00;99104.47;4993249;28;20454;-77
2024/01/03 09:35:06;;;;;;;18.00;4.20;;;;;;;8.70;100.00;99112.66;4993115;28;20117;-80
2024/01/03 09:37:32;;;;;;;18.30;4.28;;;;;;;8.74;100.00;99105.47;4993239;28;20038;-80
2024/01/03 09:39:57;;;;;;;20.48;3.72;;;;;;;8.80;100.00;99105.78;4993268;28;20046;-80
2024/01/03 09:42:23;;;;;;;20.80;4.10;;;;;;;8.94;100.00;99104.63;4993181;28;20018;-81
2024/01/03 09:44:50;;;;;;;15.07;3.92;;;;;;;9.07;100.00;99101.88;5011581;28;20053;-75
2024/01/03 09:47:16;;;;;;;20.13;4.20;;;;;;;9.22;100.00;99113.44;5033131;28;20029;-78
2024/01/03 09:49:44;;;;;;;23.42;3.92;;;;;;;9.33;100.00;99110.75;5032741;28;20033;-79
2024/01/03 09:52:12;;;;;;;18.38;3.67;;;;;;;9.34;100.00;99107.25;5032345;28;20045;-77
2024/01/03 09:54:38;;;;;;;17.05;3.50;;;;;;;9.35;100.00;99114.03;5032263;28;20024;-77
2024/01/03 09:57:07;;;;;;;19.67;4.25;;;;;;;9.34;100.00;99120.13;5030848;28;20544;-78
2024/01/03 09:59:32;;;;;;;21.42;3.80;;;;;;;9.26;100.00;99107.09;5032256;28;20033;-78
2024/01/03 10:01:58;;;;;;;18.85;4.05;;;;;;;9.16;100.00;99085.63;5032059;28;20139;-80
2024/01/03 10:04:27;;;;;;;19.70;4.47;;;;;;;9.26;100.00;99108.84;5032322;28;20087;-80
2024/01/03 10:06:54;;;;;;;17.42;4.20;;;;;;;9.27;100.00;99113.88;5032503;28;20029;-78
2024/01/03 10:09:21;;;;;;;16.80;3.90;;;;;;;9.30;100.00;99123.91;5032384;28;20484;-80
2024/01/03 10:11:47;;;;;;;15.20;3.60;;;;;;;9.32;100.00;99121.19;5032102;28;20465;-79
2024/01/03 10:14:22;;;;;;;17.13;3.95;;;;;;;9.36;100.00;99120.00;5031959;28;20033;-80
2024/01/03 10:16:48;;;;;;;18.80;4.03;;;;;;;9.46;100.00;99144.03;5035236;28;20026;-78
2024/01/03 10:19:16;;;;;;;22.13;4.28;;;;;;;9.49;100.00;99139.44;5035980;28;20033;-78
2024/01/03 10:21:51;;;;;;;21.10;4.38;;;;;;;9.52;100.00;99128.03;5035950;28;20028;-80
2024/01/03 10:24:18;;;;;;;21.25;4.70;;;;;;;9.46;100.00;99144.84;5035817;28;20075;-81
2024/01/03 10:26:45;;;;;;;16.65;4.60;;;;;;;9.24;100.00;99098.66;5035585;28;20385;-80
2024/01/03 10:29:12;;;;;;;16.92;4.15;;;;;;;9.35;100.00;99126.09;5035989;28;20043;-84
2024/01/03 10:31:38;;;;;;;21.27;4.50;;;;;;;9.46;100.00;99152.59;5035931;23;20048;-82
2024/01/03 10:34:12;;;;;;;21.08;4.75;;;;;;;9.51;100.00;99148.78;5015825;28;20053;-80
2024/01/03 10:36:38;;;;;;;21.10;4.55;;;;;;;9.49;100.00;99144.59;5015940;28;20033;-83
2024/01/03 10:39:05;;;;;;;20.65;4.60;;;;;;;9.48;100.00;99135.22;5015772;28;20041;-79
2024/01/03 10:41:32;;;;;;;19.35;4.07;;;;;;;9.55;100.00;99148.41;4997574;28;20379;-80
2024/01/03 10:44:00;;;;;;;20.55;4.80;;;;;;;9.24;100.00;99106.38;5015888;28;20029;-82
2024/01/03 10:46:27;;;;;;;24.75;5.47;;;;;;;9.53;100.00;99146.88;5015607;28;20149;-78
2024/01/03 10:48:52;;;;;;;23.50;4.68;;;;;;;9.59;100.00;99151.53;5015456;28;20034;-77
2024/01/03 10:51:22;;;;;;;21.50;5.30;;;;;;;9.61;100.00;99145.28;5015572;28;20033;-78
2024/01/03 10:53:49;;;;;;;20.48;5.05;;;;;;;9.68;100.00;99140.44;5015510;28;20061;-79
2024/01/03 10:56:16;;;;;;;20.70;4.90;;;;;;;9.74;100.00;99143.31;5015255;28;20374;-74
2024/01/03 10:58:41;;;;;;;19.63;5.25;;;;;;;9.76;100.00;99143.16;5015582;28;20052;-75
2024/01/03 11:01:16;;;;;;;20.00;5.13;;;;;;;9.81;100.00;99143.56;5015467;28;20041;-77
2024/01/03 11:04:11;;;;;;;23.50;4.57;;;;;;;9.78;100.00;99134.34;5015414;28;20021;-80
2024/01/03 11:06:42;;;;;;;19.20;4.68;;;;;;;9.80;100.00;99131.63;5015141;28;20030;-79
2024/01/03 11:09:07;;;;;;;20.48;4.60;;;;;;;9.74;100.00;99127.03;5015368;28;20101;-80
2024/01/03 11:11:33;;;;;;;22.10;5.43;;;;;;;9.94;100.00;99138.19;5015183;28;20101;-77
2024/01/03 11:14:00;;;;;;;24.10;4.43;;;;;;;9.84;100.00;99119.31;5014760;28;20546;-78
2024/01/03 11:16:37;;;;;;;21.25;4.13;;;;;;;10.11;100.00;99121.22;5015026;28;20034;-74
2024/01/03 11:19:07;;;;;;;22.77;5.22;;;;;;;9.97;100.00;99131.00;5014845;28;20033;-75
2024/01/03 11:21:35;;;;;;;14.25;3.67;;;;;;;9.98;100.00;99137.78;5014620;28;20030;-76
2024/01/03 11:24:09;;;;;;;17.75;4.53;;;;;;;9.88;100.00;99143.88;5014865;28;20030;-75
2024/01/03 11:26:58;;;;;;;17.58;4.20;;;;;;;9.64;100.00;99144.22;5014141;28;20470;-74